Alkmaar, Netherlands
Current Conditions -  °F | °C
As of 7:25 AM on Friday 31 Oct 2014 (Local Time) from EHKD Reporting Station
Haze Haze  
Wind Chill: 52°   Ceiling: 7500
Heat Index: 52°   Visibility: 1.8mi
Dew Point: 52°   Wind: 7mph
Humidity: 100%   Direction: 190°S
Pressure: 30.12"   Gusts: NA
Location:  52.64°N, 4.75°E
Report Text: EHKD 310625Z AUTO 19006KT 2900 R21/2900 BR NCD 11/11 Q1020 YLO 18007KT 2000 BR BKN075 BECMG 4000 BR
Loading
Personal Weather Stations






























Interactive Weather Map
Tropical Storm Tracking
New forecast layout! Learn more

10-Day Weather Forecast

Advertisements
Track Severe Weather on mobile